createdAt,value
2019-05-29T00:02:21.221Z,98.40
2019-05-29T00:04:49.667Z,98.30
2019-05-29T00:07:18.487Z,98.20
2019-05-29T00:09:46.966Z,98.20
2019-05-29T00:12:19.583Z,98.20
2019-05-29T00:14:45.585Z,98.20
2019-05-29T00:17:14.652Z,98.30
2019-05-29T00:19:43.154Z,98.10
2019-05-29T00:22:12.392Z,98.20
2019-05-29T00:24:41.110Z,98.30
2019-05-29T00:27:13.776Z,98.30
2019-05-29T00:29:39.807Z,98.60
2019-05-29T00:32:08.888Z,98.20
2019-05-29T00:34:37.392Z,98.20
2019-05-29T00:37:06.343Z,98.00
2019-05-29T00:39:34.868Z,98.00
2019-05-29T00:42:03.339Z,98.00
2019-05-29T00:44:34.548Z,98.00
2019-05-29T00:47:01.948Z,97.90
2019-05-29T00:49:30.475Z,97.90
2019-05-29T00:51:58.917Z,97.80
2019-05-29T00:54:27.364Z,97.90
2019-05-29T00:56:55.790Z,98.00
2019-05-29T00:59:24.239Z,98.10
2019-05-29T01:01:52.670Z,98.20
2019-05-29T01:04:21.119Z,98.40
2019-05-29T01:06:49.572Z,98.60
2019-05-29T01:09:18.620Z,98.70
2019-05-29T01:11:47.098Z,98.70
2019-05-29T01:14:15.545Z,98.80
2019-05-29T01:16:43.989Z,98.90
2019-05-29T01:19:27.238Z,98.90
2019-05-29T01:21:56.529Z,98.90
2019-05-29T01:24:25.986Z,99.10
2019-05-29T01:26:54.425Z,99.30
2019-05-29T01:29:23.397Z,99.50
2019-05-29T01:31:51.985Z,99.70
2019-05-29T01:34:20.506Z,99.90
2019-05-29T01:36:49.355Z,99.90
2019-05-29T01:39:17.805Z,99.90
2019-05-29T01:41:46.237Z,99.90
2019-05-29T01:44:15.322Z,99.90
2019-05-29T01:46:43.792Z,99.90
2019-05-29T01:49:12.233Z,99.90
2019-05-29T01:51:40.669Z,99.90
2019-05-29T01:54:09.124Z,99.90
2019-05-29T01:56:37.725Z,99.90
2019-05-29T01:59:06.224Z,99.90
2019-05-29T02:01:34.723Z,99.90
2019-05-29T02:04:03.259Z,99.90
2019-05-29T02:06:31.749Z,99.90
2019-05-29T02:09:00.213Z,99.90
2019-05-29T02:11:31.980Z,99.90
2019-05-29T02:13:58.810Z,99.90
2019-05-29T02:16:27.242Z,99.90
2019-05-29T02:18:55.693Z,99.90
2019-05-29T02:21:24.222Z,99.90
2019-05-29T02:23:52.646Z,99.90
2019-05-29T02:26:22.317Z,99.90
2019-05-29T02:28:50.986Z,99.90
2019-05-29T02:31:19.678Z,99.90
2019-05-29T02:33:49.755Z,99.90
2019-05-29T02:36:19.825Z,99.90
2019-05-29T02:38:48.384Z,99.90
2019-05-29T02:41:18.661Z,99.90
2019-05-29T02:43:46.972Z,99.90
2019-05-29T02:46:15.407Z,99.90
2019-05-29T02:48:43.856Z,99.90
2019-05-29T02:51:12.552Z,99.90
2019-05-29T02:53:41.053Z,99.90
2019-05-29T02:56:09.504Z,99.90
2019-05-29T02:58:37.936Z,99.90
2019-05-29T03:01:06.378Z,99.90
2019-05-29T03:03:39.547Z,99.90
2019-05-29T03:06:05.284Z,99.90
2019-05-29T03:08:34.475Z,99.90
2019-05-29T03:11:03.097Z,99.90
2019-05-29T03:13:33.428Z,99.90
2019-05-29T03:16:10.740Z,99.90
2019-05-29T03:18:32.987Z,99.90
2019-05-29T03:21:02.392Z,99.90
2019-05-29T03:23:31.674Z,99.90
2019-05-29T03:26:01.003Z,99.90
2019-05-29T03:28:29.924Z,99.90
2019-05-29T03:30:58.902Z,99.90
2019-05-29T03:33:31.108Z,99.90
2019-05-29T03:35:57.500Z,99.90
2019-05-29T03:38:26.175Z,99.90
2019-05-29T03:40:54.680Z,99.90
2019-05-29T03:43:23.188Z,99.90
2019-05-29T03:45:51.635Z,99.90
2019-05-29T03:48:20.060Z,99.90
2019-05-29T03:50:48.578Z,99.90
2019-05-29T03:53:17.096Z,99.90
2019-05-29T03:55:45.557Z,99.90
2019-05-29T03:58:14.001Z,99.90
2019-05-29T04:00:46.744Z,99.90
2019-05-29T04:03:12.612Z,99.90
2019-05-29T04:05:41.069Z,99.90
2019-05-29T04:08:09.594Z,99.90
2019-05-29T04:10:39.750Z,99.90
2019-05-29T04:13:08.417Z,99.90
2019-05-29T04:15:38.561Z,99.90
2019-05-29T04:18:07.881Z,99.90
2019-05-29T04:20:38.888Z,99.90
2019-05-29T04:23:07.759Z,99.90
2019-05-29T04:25:42.295Z,99.90
2019-05-29T04:28:09.125Z,99.90
2019-05-29T04:30:39.107Z,99.90
2019-05-29T04:33:07.895Z,99.90
2019-05-29T04:35:37.013Z,99.90
2019-05-29T04:38:06.133Z,99.90
2019-05-29T04:40:35.080Z,99.90
2019-05-29T04:43:04.826Z,99.90
2019-05-29T04:45:35.011Z,99.90
2019-05-29T04:48:03.457Z,99.90
2019-05-29T04:50:33.362Z,99.90
2019-05-29T04:53:02.089Z,99.90
2019-05-29T04:55:30.742Z,99.90
2019-05-29T04:57:59.236Z,99.90
2019-05-29T05:00:28.928Z,99.90
2019-05-29T05:02:57.578Z,99.90
2019-05-29T05:05:26.026Z,99.90
2019-05-29T05:07:54.567Z,99.90
2019-05-29T05:10:29.234Z,99.90
2019-05-29T05:12:57.715Z,99.90
2019-05-29T05:15:26.166Z,99.90
2019-05-29T05:17:54.609Z,99.90
2019-05-29T05:20:23.058Z,99.90
2019-05-29T05:22:51.499Z,99.90
2019-05-29T05:25:19.943Z,99.90
2019-05-29T05:27:48.397Z,99.90
2019-05-29T05:30:17.341Z,99.90
2019-05-29T05:32:45.790Z,99.90
2019-05-29T05:35:14.731Z,99.90
2019-05-29T05:37:43.230Z,99.90
2019-05-29T05:40:11.678Z,99.90
2019-05-29T05:42:41.284Z,99.90
2019-05-29T05:45:09.990Z,99.90
2019-05-29T05:47:50.435Z,99.90
2019-05-29T05:50:09.065Z,99.90
2019-05-29T05:52:37.601Z,99.90
2019-05-29T05:55:06.318Z,99.90
2019-05-29T05:57:35.583Z,99.90
2019-05-29T06:00:06.724Z,99.90
2019-05-29T06:02:35.924Z,99.90
2019-05-29T06:05:06.644Z,99.90
2019-05-29T06:07:36.097Z,99.90
2019-05-29T06:10:06.814Z,99.10
2019-05-29T06:12:36.414Z,98.80
2019-05-29T06:15:06.305Z,98.50
2019-05-29T06:17:34.754Z,98.00
2019-05-29T06:20:05.275Z,98.10
2019-05-29T06:22:34.900Z,98.20
2019-05-29T06:25:04.002Z,98.40
2019-05-29T06:27:33.673Z,98.50
2019-05-29T06:30:03.168Z,98.60
2019-05-29T06:32:33.357Z,98.40
2019-05-29T06:35:02.058Z,98.30
2019-05-29T06:37:30.589Z,97.80
2019-05-29T06:39:59.032Z,97.10
2019-05-29T06:42:27.482Z,96.30
2019-05-29T06:44:55.930Z,96.10
2019-05-29T06:47:24.466Z,95.70
2019-05-29T06:49:52.913Z,95.80
2019-05-29T06:52:21.393Z,95.80
2019-05-29T06:54:49.819Z,95.60
2019-05-29T06:57:18.269Z,94.90
2019-05-29T06:59:46.775Z,95.10
2019-05-29T07:02:15.226Z,95.50
2019-05-29T07:04:44.620Z,95.40
2019-05-29T07:07:13.200Z,94.90
2019-05-29T07:09:41.647Z,95.10
2019-05-29T07:12:10.079Z,94.90
2019-05-29T07:14:38.554Z,94.70
2019-05-29T07:17:07.020Z,93.80
2019-05-29T07:19:48.904Z,93.10
2019-05-29T07:22:05.618Z,92.90
2019-05-29T07:24:34.066Z,91.70
2019-05-29T07:27:02.525Z,92.30
2019-05-29T07:29:31.045Z,92.60
2019-05-29T07:31:59.546Z,92.70
2019-05-29T07:34:28.039Z,91.60
2019-05-29T07:36:56.480Z,91.30
2019-05-29T07:39:24.993Z,91.60
2019-05-29T07:41:53.440Z,91.60
2019-05-29T07:44:21.887Z,90.50
2019-05-29T07:46:50.359Z,88.90
2019-05-29T07:49:18.815Z,88.00
2019-05-29T07:51:48.343Z,86.00
2019-05-29T07:54:17.189Z,86.30
2019-05-29T07:56:46.608Z,86.80
2019-05-29T07:59:15.161Z,85.50
2019-05-29T08:01:44.768Z,84.70
2019-05-29T08:04:13.352Z,84.70
2019-05-29T08:06:48.335Z,80.00
2019-05-29T08:09:11.985Z,77.80
2019-05-29T08:11:41.531Z,79.10
2019-05-29T08:14:10.059Z,79.10
2019-05-29T08:16:39.673Z,80.10
2019-05-29T08:19:08.246Z,80.50
2019-05-29T08:21:36.738Z,81.50
2019-05-29T08:24:05.187Z,80.90
2019-05-29T08:26:33.634Z,80.80
2019-05-29T08:29:02.098Z,79.10
2019-05-29T08:31:30.522Z,80.20
2019-05-29T08:33:59.000Z,78.70
2019-05-29T08:36:27.422Z,78.10
2019-05-29T08:38:55.888Z,79.50
2019-05-29T08:41:24.340Z,79.70
2019-05-29T08:43:52.959Z,82.20
2019-05-29T08:46:21.486Z,81.60
2019-05-29T08:48:50.096Z,80.30
2019-05-29T08:51:18.653Z,78.10
2019-05-29T08:53:48.782Z,79.40
2019-05-29T08:56:17.341Z,77.10
2019-05-29T08:58:46.295Z,76.80
2019-05-29T09:01:14.810Z,77.00
2019-05-29T09:03:44.757Z,75.00
2019-05-29T09:06:13.802Z,74.50
2019-05-29T09:08:43.673Z,75.00
2019-05-29T09:11:12.521Z,75.70
2019-05-29T09:13:40.965Z,74.10
2019-05-29T09:16:09.406Z,74.80
2019-05-29T09:18:37.849Z,75.00
2019-05-29T09:21:06.300Z,74.10
2019-05-29T09:23:34.731Z,73.20
2019-05-29T09:26:14.300Z,73.60
2019-05-29T09:28:34.071Z,72.90
2019-05-29T09:31:02.550Z,72.30
2019-05-29T09:33:31.034Z,72.00
2019-05-29T09:35:59.764Z,69.20
2019-05-29T09:38:28.201Z,69.60
2019-05-29T09:40:56.664Z,70.80
2019-05-29T09:43:29.779Z,68.80
2019-05-29T09:45:55.275Z,67.50
2019-05-29T09:48:26.858Z,68.20
2019-05-29T09:50:54.059Z,68.40
2019-05-29T09:53:22.486Z,68.60
2019-05-29T09:55:52.251Z,67.90
2019-05-29T09:58:21.113Z,67.90
2019-05-29T10:01:09.843Z,69.60
2019-05-29T10:03:19.749Z,67.60
2019-05-29T10:05:48.205Z,68.30
2019-05-29T10:08:17.147Z,66.20
2019-05-29T10:10:45.764Z,67.40
2019-05-29T10:13:14.259Z,68.10
2019-05-29T10:15:42.700Z,67.70
2019-05-29T10:18:30.641Z,66.40
2019-05-29T10:20:41.353Z,67.20
2019-05-29T10:23:09.833Z,68.20
2019-05-29T10:25:38.343Z,67.40
2019-05-29T10:28:06.809Z,65.40
2019-05-29T10:30:35.289Z,64.80
2019-05-29T10:33:03.843Z,65.50
2019-05-29T10:35:32.300Z,66.80
2019-05-29T10:38:00.823Z,67.00
2019-05-29T10:40:30.043Z,63.60
2019-05-29T10:42:58.486Z,65.30
2019-05-29T10:45:27.006Z,65.20
2019-05-29T10:47:55.427Z,65.10
2019-05-29T10:50:23.895Z,64.90
2019-05-29T10:52:52.339Z,64.80
2019-05-29T10:55:22.899Z,64.40
2019-05-29T10:57:53.138Z,65.10
2019-05-29T11:00:23.273Z,64.90
2019-05-29T11:02:53.527Z,64.70
2019-05-29T11:05:21.854Z,63.60
2019-05-29T11:07:51.765Z,61.80
2019-05-29T11:10:20.580Z,61.60
2019-05-29T11:12:50.451Z,58.50
2019-05-29T11:15:21.946Z,59.00
2019-05-29T11:17:51.371Z,58.90
2019-05-29T11:20:20.725Z,58.20
2019-05-29T11:22:49.539Z,58.00
2019-05-29T11:25:24.864Z,58.00
2019-05-29T11:27:50.262Z,58.20
2019-05-29T11:30:19.437Z,58.70
2019-05-29T11:32:50.229Z,58.10
2019-05-29T11:35:18.145Z,58.10
2019-05-29T11:37:46.650Z,57.10
2019-05-29T11:40:15.830Z,58.60
2019-05-29T11:42:44.274Z,57.00
2019-05-29T11:45:13.059Z,58.30
2019-05-29T11:47:41.515Z,58.20
2019-05-29T11:50:19.566Z,55.50
2019-05-29T11:52:44.665Z,54.00
2019-05-29T11:55:14.553Z,53.90
2019-05-29T11:57:43.457Z,54.90
2019-05-29T12:00:20.212Z,55.20
2019-05-29T12:02:44.858Z,55.50
2019-05-29T12:05:14.447Z,54.20
2019-05-29T12:07:42.904Z,54.10
2019-05-29T12:10:11.800Z,54.10
2019-05-29T12:12:40.420Z,54.50
2019-05-29T12:15:15.058Z,55.50
2019-05-29T12:17:41.289Z,54.80
2019-05-29T12:20:27.285Z,55.50
2019-05-29T12:22:41.089Z,54.10
2019-05-29T12:25:09.775Z,53.00
2019-05-29T12:27:38.232Z,52.20
2019-05-29T12:30:08.902Z,53.30
2019-05-29T12:32:37.361Z,53.60
2019-05-29T12:35:07.328Z,53.50
2019-05-29T12:37:35.784Z,54.60
2019-05-29T12:40:08.941Z,54.70
2019-05-29T12:42:37.536Z,53.90
2019-05-29T12:45:08.012Z,54.70
2019-05-29T12:47:36.463Z,55.60
2019-05-29T12:50:11.880Z,55.90
2019-05-29T12:52:40.511Z,55.80
2019-05-29T12:55:09.377Z,53.20
2019-05-29T12:57:37.903Z,53.40
2019-05-29T13:00:15.188Z,53.20
2019-05-29T13:02:43.692Z,53.70
2019-05-29T13:05:20.080Z,52.70
2019-05-29T13:07:44.555Z,52.60
2019-05-29T13:10:29.375Z,52.20
2019-05-29T13:12:45.013Z,51.20
2019-05-29T13:15:14.914Z,49.70
2019-05-29T13:17:43.374Z,48.70
2019-05-29T13:20:21.151Z,50.30
2019-05-29T13:22:42.655Z,50.60
2019-05-29T13:25:12.306Z,49.80
2019-05-29T13:27:40.817Z,50.20
2019-05-29T13:30:13.850Z,50.60
2019-05-29T13:32:42.633Z,49.20
2019-05-29T13:35:11.870Z,47.80
2019-05-29T13:37:40.325Z,47.70
2019-05-29T13:40:08.921Z,48.70
2019-05-29T13:42:37.350Z,48.90
2019-05-29T13:45:17.056Z,49.70
2019-05-29T13:47:37.199Z,49.40
2019-05-29T13:50:11.439Z,49.70
2019-05-29T13:52:37.420Z,50.20
2019-05-29T13:55:07.719Z,49.10
2019-05-29T13:57:39.531Z,49.40
2019-05-29T14:00:30.335Z,48.90
2019-05-29T14:02:40.277Z,48.20
2019-05-29T14:05:09.067Z,48.20
2019-05-29T14:07:37.512Z,48.00
2019-05-29T14:10:07.809Z,46.70
2019-05-29T14:12:37.573Z,46.60
2019-05-29T14:15:10.706Z,47.70
2019-05-29T14:17:39.130Z,46.90
2019-05-29T14:20:08.945Z,47.00
2019-05-29T14:22:37.448Z,46.90
2019-05-29T14:25:09.475Z,46.70
2019-05-29T14:27:38.161Z,46.50
2019-05-29T14:30:11.315Z,46.30
2019-05-29T14:32:39.787Z,46.30
2019-05-29T14:35:10.805Z,47.60
2019-05-29T14:37:39.038Z,48.00
2019-05-29T14:40:07.905Z,48.50
2019-05-29T14:42:36.558Z,48.40
2019-05-29T14:45:10.115Z,48.00
2019-05-29T14:47:38.754Z,47.60
2019-05-29T14:50:08.921Z,48.70
2019-05-29T14:52:37.566Z,47.50
2019-05-29T14:55:06.973Z,47.60
2019-05-29T14:57:35.535Z,46.80
2019-05-29T15:00:20.633Z,47.10
2019-05-29T15:02:38.867Z,47.60
2019-05-29T15:05:07.805Z,47.70
2019-05-29T15:07:36.380Z,47.00
2019-05-29T15:10:19.773Z,47.80
2019-05-29T15:12:38.665Z,48.60
2019-05-29T15:15:08.920Z,49.10
2019-05-29T15:17:37.599Z,48.20
2019-05-29T15:20:09.348Z,48.50
2019-05-29T15:22:38.320Z,48.60
2019-05-29T15:25:17.156Z,48.50
2019-05-29T15:27:38.143Z,49.30
2019-05-29T15:30:10.271Z,48.80
2019-05-29T15:32:39.104Z,48.60
2019-05-29T15:35:13.869Z,48.90
2019-05-29T15:37:38.073Z,48.70
2019-05-29T15:40:08.787Z,49.30
2019-05-29T15:42:37.444Z,48.70
2019-05-29T15:45:07.806Z,48.80
2019-05-29T15:47:36.247Z,49.30
2019-05-29T15:50:09.413Z,49.20
2019-05-29T15:52:37.915Z,49.50
2019-05-29T15:55:21.475Z,49.00
2019-05-29T15:57:37.309Z,49.10
2019-05-29T16:00:11.352Z,49.50
2019-05-29T16:02:40.018Z,50.00
2019-05-29T16:05:09.180Z,50.30
2019-05-29T16:07:37.600Z,50.40
2019-05-29T16:10:08.312Z,50.40
2019-05-29T16:12:36.769Z,49.90
2019-05-29T16:15:07.272Z,49.90
2019-05-29T16:17:35.754Z,49.80
2019-05-29T16:20:10.300Z,49.50
2019-05-29T16:22:39.094Z,49.60
2019-05-29T16:25:08.753Z,49.90
2019-05-29T16:27:37.175Z,50.20
2019-05-29T16:30:07.444Z,50.20
2019-05-29T16:32:35.882Z,50.10
2019-05-29T16:35:06.545Z,49.80
2019-05-29T16:37:35.003Z,50.00
2019-05-29T16:40:05.278Z,50.40
2019-05-29T16:42:33.726Z,50.30
2019-05-29T16:45:02.227Z,49.50
2019-05-29T16:47:30.744Z,49.20
2019-05-29T16:49:59.232Z,49.90
2019-05-29T16:52:27.763Z,50.20
2019-05-29T16:54:56.243Z,50.00
2019-05-29T16:57:24.755Z,49.70
2019-05-29T16:59:53.226Z,50.00
2019-05-29T17:02:21.825Z,50.50
2019-05-29T17:04:50.295Z,50.20
2019-05-29T17:07:19.999Z,49.60
2019-05-29T17:09:48.615Z,49.10
2019-05-29T17:12:18.171Z,49.30
2019-05-29T17:14:46.835Z,49.50
2019-05-29T17:17:16.511Z,50.10
2019-05-29T17:19:45.328Z,50.00
2019-05-29T17:22:14.561Z,50.40
2019-05-29T17:24:43.096Z,50.60
2019-05-29T17:27:11.623Z,51.20
2019-05-29T17:29:40.063Z,50.70
2019-05-29T17:32:08.516Z,50.20
2019-05-29T17:34:36.955Z,50.50
2019-05-29T17:37:05.405Z,49.80
2019-05-29T17:39:33.875Z,49.10
2019-05-29T17:42:02.320Z,49.30
2019-05-29T17:44:30.759Z,49.50
2019-05-29T17:46:59.233Z,49.40
2019-05-29T17:49:34.114Z,49.30
2019-05-29T17:51:57.863Z,49.40
2019-05-29T17:54:26.312Z,49.10
2019-05-29T17:56:54.903Z,49.80
2019-05-29T17:59:24.139Z,50.00
2019-05-29T18:01:52.702Z,50.20
2019-05-29T18:04:22.476Z,50.70
2019-05-29T18:06:51.106Z,50.90
2019-05-29T18:09:23.753Z,49.70
2019-05-29T18:11:49.840Z,50.00
2019-05-29T18:14:19.183Z,50.30
2019-05-29T18:16:47.722Z,50.50
2019-05-29T18:19:17.439Z,50.60
2019-05-29T18:21:46.091Z,50.30
2019-05-29T18:24:14.559Z,50.00
2019-05-29T18:26:47.308Z,50.00
2019-05-29T18:29:13.245Z,50.50
2019-05-29T18:31:41.767Z,50.70
2019-05-29T18:34:10.225Z,50.60
2019-05-29T18:36:38.671Z,51.20
2019-05-29T18:39:08.139Z,51.60
2019-05-29T18:41:36.587Z,52.00
2019-05-29T18:44:05.110Z,51.80
2019-05-29T18:46:37.570Z,52.00
2019-05-29T18:49:03.710Z,52.20
2019-05-29T18:51:32.860Z,52.70
2019-05-29T18:54:01.395Z,52.70
2019-05-29T18:56:30.605Z,52.90
2019-05-29T18:58:59.200Z,53.10
2019-05-29T19:01:27.671Z,52.90
2019-05-29T19:03:56.118Z,53.20
2019-05-29T19:06:25.542Z,53.70
2019-05-29T19:08:54.081Z,54.10
2019-05-29T19:11:23.700Z,54.30
2019-05-29T19:13:52.365Z,54.70
2019-05-29T19:16:21.840Z,55.80
2019-05-29T19:18:50.439Z,55.40
2019-05-29T19:21:18.888Z,55.80
2019-05-29T19:23:47.368Z,56.70
2019-05-29T19:26:15.860Z,56.30
2019-05-29T19:28:44.317Z,56.60
2019-05-29T19:31:12.782Z,56.90
2019-05-29T19:33:41.250Z,57.10
2019-05-29T19:36:09.707Z,57.20
2019-05-29T19:38:38.166Z,57.20
2019-05-29T19:41:06.613Z,57.30
2019-05-29T19:43:35.226Z,57.40
2019-05-29T19:46:03.717Z,58.00
2019-05-29T19:48:33.042Z,58.20
2019-05-29T19:51:01.578Z,58.30
2019-05-29T19:53:31.373Z,58.50
2019-05-29T19:55:59.964Z,58.80
2019-05-29T19:58:29.700Z,59.00
2019-05-29T20:00:58.242Z,59.10
2019-05-29T20:03:26.695Z,59.20
2019-05-29T20:05:55.590Z,59.90
2019-05-29T20:08:24.043Z,60.70
2019-05-29T20:10:52.548Z,61.30
2019-05-29T20:13:20.998Z,61.90
2019-05-29T20:15:49.444Z,62.10
2019-05-29T20:18:17.888Z,62.20
2019-05-29T20:20:46.315Z,62.50
2019-05-29T20:23:14.752Z,62.70
2019-05-29T20:25:43.234Z,62.90
2019-05-29T20:28:11.732Z,63.20
2019-05-29T20:30:40.281Z,63.50
2019-05-29T20:33:08.726Z,64.00
2019-05-29T20:35:37.197Z,64.30
2019-05-29T20:38:06.613Z,65.10
2019-05-29T20:40:35.332Z,65.40
2019-05-29T20:43:03.782Z,65.50
2019-05-29T20:45:33.326Z,65.30
2019-05-29T20:48:01.926Z,65.60
2019-05-29T20:50:30.892Z,65.70
2019-05-29T20:52:59.522Z,66.20
2019-05-29T20:55:27.987Z,66.60
2019-05-29T20:57:56.436Z,66.80
2019-05-29T21:00:24.883Z,67.10
2019-05-29T21:02:53.330Z,67.90
2019-05-29T21:05:21.795Z,68.10
2019-05-29T21:07:50.244Z,68.30
2019-05-29T21:10:20.067Z,68.50
2019-05-29T21:12:48.506Z,68.70
2019-05-29T21:15:17.140Z,69.20
2019-05-29T21:17:45.663Z,69.40
2019-05-29T21:20:14.281Z,69.70
2019-05-29T21:22:43.014Z,70.30
2019-05-29T21:25:17.291Z,70.70
2019-05-29T21:27:46.912Z,71.20
2019-05-29T21:30:14.127Z,71.70
2019-05-29T21:32:43.889Z,72.10
2019-05-29T21:35:12.649Z,72.30
2019-05-29T21:37:42.427Z,72.30
2019-05-29T21:40:11.554Z,72.50
2019-05-29T21:42:40.573Z,73.00
2019-05-29T21:45:09.370Z,73.50
2019-05-29T21:47:38.986Z,73.70
2019-05-29T21:50:08.666Z,74.10
2019-05-29T21:52:37.490Z,74.50
2019-05-29T21:55:06.872Z,74.70
2019-05-29T21:57:35.315Z,74.90
2019-05-29T22:00:07.638Z,75.00
2019-05-29T22:02:36.255Z,75.60
2019-05-29T22:05:08.869Z,75.90
2019-05-29T22:07:38.513Z,76.60
2019-05-29T22:10:07.456Z,76.90
2019-05-29T22:12:35.950Z,77.40
2019-05-29T22:15:06.282Z,78.00
2019-05-29T22:17:34.766Z,78.00
2019-05-29T22:20:05.252Z,78.00
2019-05-29T22:22:33.682Z,77.90
2019-05-29T22:25:02.126Z,77.70
2019-05-29T22:27:30.576Z,77.70
2019-05-29T22:29:59.444Z,77.30
2019-05-29T22:32:27.942Z,77.20
2019-05-29T22:34:57.555Z,77.00
2019-05-29T22:37:26.132Z,77.30
2019-05-29T22:39:55.492Z,77.80
2019-05-29T22:42:23.989Z,77.90
2019-05-29T22:44:53.516Z,78.60
2019-05-29T22:47:22.067Z,79.10
2019-05-29T22:49:51.633Z,79.50
2019-05-29T22:52:20.198Z,80.00
2019-05-29T22:54:48.651Z,80.60
2019-05-29T22:57:17.095Z,81.50
2019-05-29T22:59:45.587Z,81.90
2019-05-29T23:02:14.066Z,82.70
2019-05-29T23:04:42.493Z,83.30
2019-05-29T23:07:10.937Z,84.10
2019-05-29T23:09:39.367Z,84.30
2019-05-29T23:12:07.812Z,85.20
2019-05-29T23:14:36.248Z,85.60
2019-05-29T23:17:04.738Z,86.70
2019-05-29T23:19:33.242Z,87.20
2019-05-29T23:22:02.752Z,87.20
2019-05-29T23:24:31.327Z,87.30
2019-05-29T23:27:00.692Z,87.70
2019-05-29T23:29:29.376Z,87.90
2019-05-29T23:31:58.836Z,88.30
2019-05-29T23:34:27.366Z,89.00
2019-05-29T23:36:57.046Z,89.80
2019-05-29T23:39:25.539Z,90.30
2019-05-29T23:41:55.159Z,90.20
2019-05-29T23:44:23.687Z,90.50
2019-05-29T23:46:53.281Z,90.70
2019-05-29T23:49:21.824Z,91.10
2019-05-29T23:51:50.286Z,91.40
2019-05-29T23:54:18.714Z,91.60
2019-05-29T23:56:47.186Z,91.90
2019-05-29T23:59:15.606Z,92.20
